This is the latest recevied weather packets stored in our database for station/object KF6GPE. If no packets are shown the sender has not sent any weather packets the latest 10 day(s).
| Time | Temp. | Humidity | Pressure | Rain* | Wind** | Luminosity | Snow |
|---|---|---|---|---|---|---|---|
| 1778275802 | 21.11° C | 65% | 990.4 hPa | 0 mm | - | 1091 W/m² | - |
| 1778274603 | 21.67° C | 64% | 990.6 hPa | 0 mm | - | 1094 W/m² | - |
| 1778274002 | 21.11° C | 64% | 990.6 hPa | 0 mm | - | 1095 W/m² | - |
| 1778273403 | 21.11° C | 64% | 990.8 hPa | 0 mm | - | 1096 W/m² | - |
| 1778272804 | 20.56° C | 66% | 990.8 hPa | 0 mm | - | 1097 W/m² | - |
| 1778272203 | 20.56° C | 67% | 990.9 hPa | 0 mm | - | 1098 W/m² | - |
| 1778271604 | 20° C | 67% | 991 hPa | 0 mm | - | 1098 W/m² | - |
| 1778271003 | 20° C | 67% | 991.1 hPa | 0 mm | - | 1098 W/m² | - |
| 1778270404 | 20° C | 67% | 991.1 hPa | 0 mm | - | 1099 W/m² | - |
| 1778269804 | 19.44° C | 67% | 991.2 hPa | 0 mm | - | 1098 W/m² | - |
| 1778269202 | 19.44° C | 68% | 991.1 hPa | 0 mm | - | 1098 W/m² | - |
| 1778268604 | 19.44° C | 67% | 991.2 hPa | 0 mm | - | 1098 W/m² | - |
| 1778268003 | 19.44° C | 68% | 991.3 hPa | 0 mm | - | 1097 W/m² | - |
| 1778266803 | 19.44° C | 67% | 991.5 hPa | 0 mm | - | 1094 W/m² | - |
| 1778266203 | 18.89° C | 67% | 991.6 hPa | 0 mm | - | 1093 W/m² | - |
| 1778265603 | 18.33° C | 68% | 991.6 hPa | 0 mm | - | 1091 W/m² | - |
| 1778265004 | 17.78° C | 69% | 991.7 hPa | 0 mm | - | 1090 W/m² | - |
| 1778264403 | 17.78° C | 68% | 991.8 hPa | 0 mm | - | 1088 W/m² | - |
| 1778263802 | 17.22° C | 70% | 991.8 hPa | 0 mm | - | 1086 W/m² | - |
| 1778263203 | 16.67° C | 71% | 991.8 hPa | 0 mm | - | 1083 W/m² | - |
| 1778262603 | 16.11° C | 74% | 991.9 hPa | 0 mm | - | 1081 W/m² | - |
| 1778261404 | 15° C | 78% | 992 hPa | 0 mm | - | 1075 W/m² | - |
| 1778260802 | 14.44° C | 79% | 992.1 hPa | 0 mm | - | 1064 W/m² | - |
| 1778260204 | 13.89° C | 80% | 992 hPa | 0 mm | - | 1003 W/m² | - |
| 1778259604 | 13.33° C | 81% | 991.9 hPa | 0 mm | - | 1002 W/m² | - |
* Rain latest hour (hover to see other rain measurements)
** Current wind speed in m/s (hover to see current wind gust speed)